createdAt,value
2019-01-09T00:05:28.371Z,101037.73
2019-01-09T00:11:32.734Z,101052.02
2019-01-09T00:17:38.653Z,101040.72
2019-01-09T00:23:44.605Z,101039.07
2019-01-09T00:29:50.355Z,101029.08
2019-01-09T00:35:56.256Z,101039.34
2019-01-09T00:42:02.189Z,101029.83
2019-01-09T00:48:07.900Z,101023.09
2019-01-09T00:54:13.778Z,101010.52
2019-01-09T01:00:20.939Z,101015.30
2019-01-09T01:07:27.800Z,101019.81
2019-01-09T01:14:14.493Z,101026.02
2019-01-09T01:20:53.901Z,101038.88
2019-01-09T01:27:19.460Z,101034.19
2019-01-09T01:33:56.043Z,101042.47
2019-01-09T01:40:29.610Z,101040.54
2019-01-09T01:47:29.538Z,101042.24
2019-01-09T01:54:31.221Z,101032.38
2019-01-09T02:01:33.599Z,101041.56
2019-01-09T02:08:42.630Z,101044.66
2019-01-09T02:15:45.900Z,101039.39
2019-01-09T02:22:58.813Z,101055.44
2019-01-09T02:30:06.384Z,101061.10
2019-01-09T02:36:13.551Z,101080.65
2019-01-09T02:42:19.984Z,101080.53
2019-01-09T02:48:26.315Z,101086.09
2019-01-09T02:54:32.069Z,101095.34
2019-01-09T03:00:37.779Z,101086.86
2019-01-09T03:06:43.588Z,101086.48
2019-01-09T03:12:49.519Z,101098.52
2019-01-09T03:18:55.287Z,101099.27
2019-01-09T03:25:01.303Z,101094.37
2019-01-09T03:31:07.404Z,101098.41
2019-01-09T03:37:13.166Z,101094.17
2019-01-09T03:43:18.899Z,101093.16
2019-01-09T03:49:24.826Z,101081.20
2019-01-09T03:55:30.647Z,101076.19
2019-01-09T04:01:36.539Z,101070.87
2019-01-09T04:07:42.317Z,101070.85
2019-01-09T04:13:48.227Z,101067.44
2019-01-09T04:19:54.030Z,101067.07
2019-01-09T04:25:59.979Z,101090.39
2019-01-09T04:32:05.698Z,101074.09
2019-01-09T04:38:11.657Z,101078.92
2019-01-09T04:44:17.453Z,101086.38
2019-01-09T04:50:23.305Z,101087.67
2019-01-09T04:56:29.165Z,101095.14
2019-01-09T05:02:34.954Z,101085.47
2019-01-09T05:08:40.815Z,101082.41
2019-01-09T05:14:46.969Z,101079.80
2019-01-09T05:20:53.069Z,101084.79
2019-01-09T05:26:58.791Z,101089.30
2019-01-09T05:33:18.691Z,101080.28
2019-01-09T05:39:24.616Z,101081.85
2019-01-09T05:45:30.369Z,101082.59
2019-01-09T05:51:36.303Z,101082.92
2019-01-09T05:57:42.493Z,101086.64
2019-01-09T06:03:48.647Z,101090.81
2019-01-09T06:09:54.680Z,101091.51
2019-01-09T06:16:00.579Z,101094.87
2019-01-09T06:22:06.496Z,101093.81
2019-01-09T06:28:12.392Z,101103.42
2019-01-09T06:34:18.297Z,101099.96
2019-01-09T06:40:24.250Z,101109.77
2019-01-09T06:46:30.008Z,101110.69
2019-01-09T06:52:36.025Z,101117.46
2019-01-09T06:58:42.018Z,101127.27
2019-01-09T07:04:47.761Z,101131.49
2019-01-09T07:11:02.587Z,101134.72
2019-01-09T07:17:08.757Z,101150.73
2019-01-09T07:23:14.860Z,101160.59
2019-01-09T07:29:20.711Z,101163.02
2019-01-09T07:35:26.460Z,101167.54
2019-01-09T07:41:32.643Z,101173.34
2019-01-09T07:47:38.500Z,101181.27
2019-01-09T07:53:44.580Z,101182.95
2019-01-09T07:59:50.596Z,101189.86
2019-01-09T08:05:56.535Z,101187.91
2019-01-09T08:12:02.335Z,101191.40
2019-01-09T08:18:08.288Z,101192.81
2019-01-09T08:24:18.959Z,101222.88
2019-01-09T08:30:24.666Z,101215.19
2019-01-09T08:36:30.405Z,101228.12
2019-01-09T08:42:44.219Z,101237.54
2019-01-09T08:48:50.163Z,101250.13
2019-01-09T08:54:56.403Z,101259.65
2019-01-09T09:01:02.542Z,101266.28
2019-01-09T09:07:08.635Z,101274.98
2019-01-09T09:13:34.012Z,101282.62
2019-01-09T09:19:39.829Z,101282.77
2019-01-09T09:25:45.526Z,101289.05
2019-01-09T09:31:51.482Z,101288.30
2019-01-09T09:37:58.639Z,101299.83
2019-01-09T09:44:04.445Z,101307.30
2019-01-09T09:50:12.705Z,101302.77
2019-01-09T09:56:18.828Z,101310.73
2019-01-09T10:02:24.941Z,101302.45
2019-01-09T10:08:30.922Z,101300.44
2019-01-09T10:14:36.663Z,101305.02
2019-01-09T10:20:46.265Z,101303.49
2019-01-09T10:26:54.106Z,101305.73
2019-01-09T10:32:59.735Z,101320.91
2019-01-09T10:39:09.744Z,101311.03
2019-01-09T10:45:19.233Z,101305.23
2019-01-09T10:51:25.459Z,101299.98
2019-01-09T10:57:31.206Z,101310.02
2019-01-09T11:03:36.908Z,101302.72
2019-01-09T11:09:42.650Z,101314.44
2019-01-09T11:15:48.366Z,101299.73
2019-01-09T11:21:54.134Z,101294.78
2019-01-09T11:27:59.894Z,101294.34
2019-01-09T11:34:05.684Z,101286.66
2019-01-09T11:40:12.662Z,101287.78
2019-01-09T11:46:18.386Z,101287.44
2019-01-09T11:52:24.162Z,101271.23
2019-01-09T11:58:29.922Z,101267.12
2019-01-09T12:04:35.650Z,101277.69
2019-01-09T12:10:41.351Z,101284.86
2019-01-09T12:16:47.101Z,101270.38
2019-01-09T12:22:52.933Z,101271.87
2019-01-09T12:28:59.092Z,101275.45
2019-01-09T12:35:04.988Z,101278.56
2019-01-09T12:41:10.731Z,101275.59
2019-01-09T12:47:16.514Z,101274.88
2019-01-09T12:53:22.286Z,101279.78
2019-01-09T12:59:28.679Z,101263.06
2019-01-09T13:05:34.437Z,101274.83
2019-01-09T13:11:40.189Z,101281.37
2019-01-09T13:17:45.972Z,101291.35
2019-01-09T13:23:51.781Z,101281.95
2019-01-09T13:29:57.481Z,101287.38
2019-01-09T13:36:04.016Z,101298.77
2019-01-09T13:42:09.794Z,101301.00
2019-01-09T13:48:15.532Z,101305.30
2019-01-09T13:54:21.307Z,101311.95
2019-01-09T14:00:27.115Z,101321.50
2019-01-09T14:06:32.983Z,101331.54
2019-01-09T14:12:38.771Z,101342.92
2019-01-09T14:18:44.467Z,101339.61
2019-01-09T14:24:50.215Z,101346.20
2019-01-09T14:30:56.120Z,101349.27
2019-01-09T14:37:01.977Z,101365.61
2019-01-09T14:43:07.828Z,101356.20
2019-01-09T14:49:13.559Z,101376.47
2019-01-09T14:55:19.822Z,101381.53
2019-01-09T15:01:25.578Z,101393.42
2019-01-09T15:07:31.286Z,101401.97
2019-01-09T15:13:37.031Z,101411.53
2019-01-09T15:19:42.975Z,101417.09
2019-01-09T15:25:49.140Z,101430.49
2019-01-09T15:31:55.365Z,101426.56
2019-01-09T15:38:01.293Z,101443.01
2019-01-09T15:44:07.492Z,101429.24
2019-01-09T15:50:16.511Z,101444.30
2019-01-09T15:56:22.326Z,101436.41
2019-01-09T16:02:28.126Z,101445.91
2019-01-09T16:08:33.903Z,101466.06
2019-01-09T16:14:39.852Z,101447.27
2019-01-09T16:20:45.569Z,101455.27
2019-01-09T16:26:51.459Z,101469.30
2019-01-09T16:32:57.287Z,101459.53
2019-01-09T16:39:05.392Z,101471.86
2019-01-09T16:45:12.141Z,101476.08
2019-01-09T16:51:17.890Z,101482.83
2019-01-09T16:57:23.778Z,101484.47
2019-01-09T17:03:29.684Z,101492.33
2019-01-09T17:09:37.905Z,101507.90
2019-01-09T17:15:43.912Z,101495.30
2019-01-09T17:21:49.630Z,101522.46
2019-01-09T17:27:55.430Z,101517.24
2019-01-09T17:34:01.609Z,101525.83
2019-01-09T17:40:08.689Z,101527.20
2019-01-09T17:46:14.902Z,101538.27
2019-01-09T17:52:20.650Z,101550.81
2019-01-09T17:58:26.483Z,101550.84
2019-01-09T18:04:32.226Z,101565.31
2019-01-09T18:10:38.066Z,101561.67
2019-01-09T18:16:44.112Z,101565.24
2019-01-09T18:22:49.990Z,101576.89
2019-01-09T18:28:55.711Z,101590.78
2019-01-09T18:35:28.862Z,101590.88
2019-01-09T18:42:12.299Z,101594.88
2019-01-09T18:49:21.541Z,101602.71
2019-01-09T18:55:27.268Z,101609.25
2019-01-09T19:01:33.249Z,101619.36
2019-01-09T19:07:39.056Z,101636.67
2019-01-09T19:13:45.128Z,101641.69
2019-01-09T19:19:50.995Z,101654.48
2019-01-09T19:25:56.803Z,101646.06
2019-01-09T19:32:02.652Z,101655.32
2019-01-09T19:38:08.562Z,101661.97
2019-01-09T19:44:14.497Z,101667.31
2019-01-09T19:50:23.510Z,101665.42
2019-01-09T19:56:29.586Z,101664.23
2019-01-09T20:02:35.462Z,101679.00
2019-01-09T20:08:41.418Z,101679.77
2019-01-09T20:14:48.189Z,101690.80
2019-01-09T20:20:54.165Z,101682.38
2019-01-09T20:26:59.989Z,101695.42
2019-01-09T20:33:05.939Z,101698.84
2019-01-09T20:39:11.749Z,101707.27
2019-01-09T20:45:18.480Z,101708.11
2019-01-09T20:51:24.664Z,101721.14
2019-01-09T20:57:30.569Z,101734.97
2019-01-09T21:03:36.526Z,101737.36
2019-01-09T21:09:42.316Z,101743.62
2019-01-09T21:15:48.586Z,101749.77
2019-01-09T21:21:54.533Z,101752.30
2019-01-09T21:28:01.856Z,101751.03
2019-01-09T21:34:07.793Z,101744.84
2019-01-09T21:40:23.964Z,101753.08
2019-01-09T21:46:30.319Z,101755.70
2019-01-09T21:52:36.198Z,101761.41
2019-01-09T21:58:42.365Z,101765.37
2019-01-09T22:04:48.433Z,101774.62
2019-01-09T22:10:54.392Z,101780.52
2019-01-09T22:17:00.381Z,101798.06
2019-01-09T22:23:06.440Z,101795.22
2019-01-09T22:29:12.281Z,101816.99
2019-01-09T22:35:18.139Z,101817.46
2019-01-09T22:41:24.300Z,101818.51
2019-01-09T22:47:30.296Z,101828.91
2019-01-09T22:53:36.364Z,101830.88
2019-01-09T22:59:42.088Z,101835.54
2019-01-09T23:05:48.265Z,101832.73
2019-01-09T23:11:54.137Z,101836.63
2019-01-09T23:17:59.925Z,101829.75
2019-01-09T23:24:05.856Z,101838.08
2019-01-09T23:30:12.594Z,101838.67
2019-01-09T23:36:18.548Z,101839.48
2019-01-09T23:42:30.197Z,101850.59
2019-01-09T23:48:32.375Z,101865.72
2019-01-09T23:54:38.130Z,101861.05
